createdAt,value
2019-05-18T00:01:24.377Z,13.45
2019-05-18T00:03:52.918Z,13.40
2019-05-18T00:06:21.502Z,13.30
2019-05-18T00:08:50.115Z,14.03
2019-05-18T00:11:18.689Z,13.78
2019-05-18T00:13:47.276Z,14.23
2019-05-18T00:16:15.857Z,13.20
2019-05-18T00:18:44.522Z,13.22
2019-05-18T00:21:13.066Z,13.05
2019-05-18T00:23:42.020Z,13.18
2019-05-18T00:26:10.601Z,12.85
2019-05-18T00:28:39.179Z,12.00
2019-05-18T00:31:07.794Z,12.80
2019-05-18T00:33:36.339Z,12.80
2019-05-18T00:36:05.456Z,12.55
2019-05-18T00:38:33.973Z,12.45
2019-05-18T00:41:02.815Z,13.55
2019-05-18T00:43:31.391Z,12.80
2019-05-18T00:45:59.985Z,12.95
2019-05-18T00:48:28.490Z,12.60
2019-05-18T00:50:57.035Z,12.53
2019-05-18T00:53:25.671Z,12.03
2019-05-18T00:55:54.220Z,11.60
2019-05-18T00:58:22.734Z,13.32
2019-05-18T01:00:51.389Z,12.88
2019-05-18T01:03:19.940Z,12.53
2019-05-18T01:05:48.611Z,12.60
2019-05-18T01:08:17.196Z,13.43
2019-05-18T01:10:45.875Z,12.78
2019-05-18T01:13:14.404Z,13.22
2019-05-18T01:15:42.947Z,13.93
2019-05-18T01:18:11.490Z,12.45
2019-05-18T01:20:40.238Z,12.37
2019-05-18T01:23:09.386Z,12.90
2019-05-18T01:25:37.924Z,13.38
2019-05-18T01:28:06.438Z,13.65
2019-05-18T01:30:35.013Z,14.30
2019-05-18T01:33:04.658Z,13.72
2019-05-18T01:35:33.233Z,13.28
2019-05-18T01:38:01.956Z,13.95
2019-05-18T01:40:30.456Z,13.05
2019-05-18T01:42:58.968Z,13.18
2019-05-18T01:45:27.551Z,13.95
2019-05-18T01:47:56.095Z,13.48
2019-05-18T01:50:24.609Z,13.70
2019-05-18T01:52:53.215Z,14.15
2019-05-18T01:55:21.761Z,15.38
2019-05-18T01:57:50.342Z,14.30
2019-05-18T02:00:19.817Z,13.18
2019-05-18T02:02:48.338Z,13.88
2019-05-18T02:05:16.946Z,13.95
2019-05-18T02:07:46.185Z,13.68
2019-05-18T02:10:14.857Z,12.95
2019-05-18T02:12:43.437Z,13.03
2019-05-18T02:15:14.120Z,14.15
2019-05-18T02:17:42.708Z,13.95
2019-05-18T02:20:11.918Z,13.30
2019-05-18T02:22:40.503Z,14.45
2019-05-18T02:25:09.417Z,14.43
2019-05-18T02:27:37.946Z,14.13
2019-05-18T02:30:16.744Z,14.45
2019-05-18T02:32:41.850Z,16.30
2019-05-18T02:35:10.588Z,17.23
2019-05-18T02:37:39.195Z,21.55
2019-05-18T02:40:09.000Z,18.10
2019-05-18T02:42:37.543Z,18.80
2019-05-18T02:45:09.946Z,16.82
2019-05-18T02:47:38.478Z,15.57
2019-05-18T02:50:08.779Z,15.48
2019-05-18T02:52:37.322Z,15.40
2019-05-18T02:55:07.127Z,16.82
2019-05-18T02:57:35.655Z,16.75
2019-05-18T03:00:07.241Z,17.55
2019-05-18T03:02:35.984Z,17.70
2019-05-18T03:05:06.763Z,17.70
2019-05-18T03:07:35.447Z,17.05
2019-05-18T03:10:06.660Z,21.12
2019-05-18T03:12:35.655Z,19.30
2019-05-18T03:15:06.215Z,19.85
2019-05-18T03:17:34.813Z,20.52
2019-05-18T03:20:04.447Z,19.77
2019-05-18T03:22:32.960Z,19.73
2019-05-18T03:25:01.537Z,19.37
2019-05-18T03:27:30.115Z,18.52
2019-05-18T03:29:58.644Z,17.82
2019-05-18T03:32:27.117Z,18.37
2019-05-18T03:34:55.778Z,18.25
2019-05-18T03:37:24.395Z,17.75
2019-05-18T03:39:52.968Z,17.73
2019-05-18T03:42:21.477Z,18.52
2019-05-18T03:44:50.568Z,18.27
2019-05-18T03:47:19.080Z,18.32
2019-05-18T03:49:47.644Z,18.80
2019-05-18T03:52:16.282Z,19.45
2019-05-18T03:54:44.825Z,19.20
2019-05-18T03:57:13.305Z,19.60
2019-05-18T03:59:41.870Z,19.82
2019-05-18T04:02:10.411Z,21.25
2019-05-18T04:04:38.992Z,21.35
2019-05-18T04:07:07.739Z,22.32
2019-05-18T04:09:36.269Z,20.43
2019-05-18T04:12:04.815Z,20.30
2019-05-18T04:14:33.310Z,21.70
2019-05-18T04:17:01.812Z,21.02
2019-05-18T04:19:45.422Z,22.20
2019-05-18T04:22:00.603Z,22.02
2019-05-18T04:24:29.282Z,21.75
2019-05-18T04:26:57.871Z,21.07
2019-05-18T04:29:26.428Z,21.37
2019-05-18T04:31:54.956Z,22.07
2019-05-18T04:34:23.428Z,21.82
2019-05-18T04:36:51.924Z,21.15
2019-05-18T04:39:20.505Z,23.07
2019-05-18T04:41:49.077Z,22.45
2019-05-18T04:44:17.688Z,23.00
2019-05-18T04:46:46.252Z,21.95
2019-05-18T04:49:14.830Z,22.55
2019-05-18T04:51:43.403Z,21.73
2019-05-18T04:54:11.908Z,24.00
2019-05-18T04:56:42.866Z,24.50
2019-05-18T04:59:10.696Z,24.10
2019-05-18T05:01:39.362Z,24.95
2019-05-18T05:04:07.863Z,33.10
2019-05-18T05:06:36.720Z,26.37
2019-05-18T05:09:07.507Z,29.65
2019-05-18T05:11:36.081Z,28.77
2019-05-18T05:14:05.061Z,29.30
2019-05-18T05:16:33.637Z,33.70
2019-05-18T05:19:02.229Z,34.58
2019-05-18T05:21:31.366Z,37.75
2019-05-18T05:23:59.937Z,39.90
2019-05-18T05:26:28.560Z,38.95
2019-05-18T05:28:57.052Z,42.48
2019-05-18T05:31:25.514Z,44.10
2019-05-18T05:33:53.991Z,37.03
2019-05-18T05:36:22.578Z,33.92
2019-05-18T05:38:51.157Z,40.12
2019-05-18T05:41:19.822Z,38.23
2019-05-18T05:43:48.825Z,43.98
2019-05-18T05:46:17.405Z,42.35
2019-05-18T05:48:45.931Z,38.55
2019-05-18T05:51:14.510Z,37.95
2019-05-18T05:53:43.174Z,37.10
2019-05-18T05:56:11.753Z,37.50
2019-05-18T05:58:40.396Z,39.78
2019-05-18T06:01:08.867Z,37.75
2019-05-18T06:03:37.378Z,36.93
2019-05-18T06:06:05.984Z,34.03
2019-05-18T06:08:34.570Z,27.87
2019-05-18T06:11:03.138Z,28.87
2019-05-18T06:13:31.710Z,28.47
2019-05-18T06:16:00.232Z,25.25
2019-05-18T06:18:28.763Z,25.45
2019-05-18T06:20:57.289Z,28.30
2019-05-18T06:23:25.827Z,34.05
2019-05-18T06:25:54.349Z,33.02
2019-05-18T06:28:22.881Z,40.20
2019-05-18T06:30:51.411Z,39.03
2019-05-18T06:33:19.884Z,32.73
2019-05-18T06:35:48.471Z,28.87
2019-05-18T06:38:17.047Z,26.07
2019-05-18T06:40:45.630Z,26.65
2019-05-18T06:43:14.267Z,23.77
2019-05-18T06:45:42.828Z,21.90
2019-05-18T06:48:11.366Z,18.15
2019-05-18T06:50:39.966Z,17.75
2019-05-18T06:53:08.545Z,18.40
2019-05-18T06:55:37.731Z,16.95
2019-05-18T06:58:07.364Z,18.07
2019-05-18T07:00:35.896Z,17.02
2019-05-18T07:03:05.436Z,19.77
2019-05-18T07:05:34.296Z,15.30
2019-05-18T07:08:02.812Z,17.20
2019-05-18T07:10:31.676Z,17.30
2019-05-18T07:13:00.297Z,15.88
2019-05-18T07:15:28.826Z,15.48
2019-05-18T07:17:57.294Z,16.32
2019-05-18T07:20:25.854Z,17.15
2019-05-18T07:22:54.429Z,16.40
2019-05-18T07:25:22.958Z,16.85
2019-05-18T07:27:51.532Z,16.37
2019-05-18T07:30:20.067Z,18.30
2019-05-18T07:32:48.538Z,17.52
2019-05-18T07:35:17.724Z,17.62
2019-05-18T07:37:46.291Z,16.17
2019-05-18T07:40:15.037Z,15.63
2019-05-18T07:42:43.638Z,15.95
2019-05-18T07:45:13.614Z,15.45
2019-05-18T07:47:42.118Z,14.00
2019-05-18T07:50:12.215Z,14.90
2019-05-18T07:52:40.791Z,14.63
2019-05-18T07:55:09.372Z,15.05
2019-05-18T07:57:37.964Z,15.20
2019-05-18T08:00:07.834Z,13.65
2019-05-18T08:02:36.384Z,13.48
2019-05-18T08:05:08.910Z,14.47
2019-05-18T08:07:37.480Z,12.53
2019-05-18T08:10:08.724Z,12.25
2019-05-18T08:12:37.214Z,13.48
2019-05-18T08:15:08.287Z,11.30
2019-05-18T08:17:36.903Z,10.75
2019-05-18T08:20:07.526Z,9.98
2019-05-18T08:22:36.025Z,10.65
2019-05-18T08:25:07.586Z,9.75
2019-05-18T08:27:36.469Z,9.18
2019-05-18T08:30:08.532Z,9.73
2019-05-18T08:32:37.139Z,8.70
2019-05-18T08:35:06.660Z,8.85
2019-05-18T08:37:35.318Z,8.93
2019-05-18T08:40:06.084Z,8.10
2019-05-18T08:42:34.661Z,8.75
2019-05-18T08:45:04.976Z,9.80
2019-05-18T08:47:33.526Z,9.25
2019-05-18T08:50:02.099Z,9.08
2019-05-18T08:52:30.568Z,9.85
2019-05-18T08:54:59.065Z,10.32
2019-05-18T08:57:27.666Z,10.38
2019-05-18T08:59:56.259Z,9.35
2019-05-18T09:02:25.639Z,9.63
2019-05-18T09:04:54.155Z,9.88
2019-05-18T09:07:22.765Z,10.18
2019-05-18T09:09:51.265Z,10.00
2019-05-18T09:12:20.000Z,10.10
2019-05-18T09:14:48.551Z,10.30
2019-05-18T09:17:17.130Z,9.90
2019-05-18T09:19:45.693Z,10.28
2019-05-18T09:22:22.904Z,10.40
2019-05-18T09:24:44.520Z,9.53
2019-05-18T09:27:13.137Z,9.50
2019-05-18T09:29:41.671Z,7.50
2019-05-18T09:32:10.207Z,8.20
2019-05-18T09:34:38.913Z,7.95
2019-05-18T09:37:07.468Z,7.12
2019-05-18T09:39:36.029Z,6.85
2019-05-18T09:42:05.472Z,6.40
2019-05-18T09:44:34.020Z,6.97
2019-05-18T09:47:02.622Z,7.12
2019-05-18T09:49:31.383Z,6.42
2019-05-18T09:51:59.838Z,6.47
2019-05-18T09:54:28.296Z,6.25
2019-05-18T09:56:56.820Z,5.67
2019-05-18T09:59:25.472Z,6.28
2019-05-18T10:01:54.062Z,6.78
2019-05-18T10:04:22.635Z,6.97
2019-05-18T10:06:51.163Z,6.42
2019-05-18T10:09:19.630Z,7.25
2019-05-18T10:11:48.244Z,6.28
2019-05-18T10:14:16.764Z,5.45
2019-05-18T10:16:45.252Z,6.30
2019-05-18T10:19:13.845Z,6.20
2019-05-18T10:21:42.417Z,6.62
2019-05-18T10:24:10.981Z,7.10
2019-05-18T10:26:39.567Z,6.95
2019-05-18T10:29:08.053Z,7.00
2019-05-18T10:31:36.586Z,9.75
2019-05-18T10:34:05.394Z,8.60
2019-05-18T10:36:33.914Z,7.62
2019-05-18T10:39:02.423Z,7.28
2019-05-18T10:41:30.904Z,7.90
2019-05-18T10:43:59.409Z,7.30
2019-05-18T10:46:27.974Z,7.40
2019-05-18T10:48:56.582Z,7.33
2019-05-18T10:51:25.124Z,7.30
2019-05-18T10:53:53.648Z,6.85
2019-05-18T10:56:22.191Z,7.53
2019-05-18T10:58:50.674Z,8.00
2019-05-18T11:01:19.498Z,7.55
2019-05-18T11:03:50.169Z,6.45
2019-05-18T11:06:18.788Z,6.75
2019-05-18T11:08:47.321Z,6.42
2019-05-18T11:11:15.973Z,7.03
2019-05-18T11:13:44.503Z,7.35
2019-05-18T11:16:12.998Z,6.92
2019-05-18T11:18:43.720Z,6.65
2019-05-18T11:21:12.179Z,6.20
2019-05-18T11:23:44.176Z,6.97
2019-05-18T11:26:10.902Z,6.30
2019-05-18T11:28:39.533Z,6.50
2019-05-18T11:31:08.104Z,6.05
2019-05-18T11:33:36.835Z,6.40
2019-05-18T11:36:05.390Z,6.40
2019-05-18T11:38:33.937Z,6.58
2019-05-18T11:41:02.907Z,7.83
2019-05-18T11:43:31.452Z,6.55
2019-05-18T11:45:59.927Z,7.20
2019-05-18T11:48:28.501Z,7.20
2019-05-18T11:50:57.051Z,7.62
2019-05-18T11:53:25.686Z,9.43
2019-05-18T11:55:54.279Z,7.72
2019-05-18T11:58:22.850Z,7.30
2019-05-18T12:00:51.487Z,7.08
2019-05-18T12:03:20.096Z,6.50
2019-05-18T12:05:48.653Z,6.70
2019-05-18T12:08:17.193Z,7.05
2019-05-18T12:10:45.694Z,7.53
2019-05-18T12:13:14.196Z,6.87
2019-05-18T12:15:42.738Z,6.72
2019-05-18T12:18:11.316Z,5.25
2019-05-18T12:20:39.892Z,4.90
2019-05-18T12:23:09.064Z,4.28
2019-05-18T12:25:37.805Z,4.65
2019-05-18T12:28:06.376Z,4.85
2019-05-18T12:30:34.934Z,4.85
2019-05-18T12:33:05.291Z,5.12
2019-05-18T12:35:33.823Z,7.00
2019-05-18T12:38:02.352Z,5.92
2019-05-18T12:40:30.908Z,5.28
2019-05-18T12:42:59.400Z,5.53
2019-05-18T12:45:28.407Z,6.22
2019-05-18T12:47:57.009Z,6.53
2019-05-18T12:50:27.536Z,8.00
2019-05-18T12:52:56.121Z,10.55
2019-05-18T12:55:25.129Z,8.50
2019-05-18T12:57:53.632Z,8.08
2019-05-18T13:00:22.837Z,9.30
2019-05-18T13:02:51.427Z,7.92
2019-05-18T13:05:20.354Z,8.93
2019-05-18T13:07:48.899Z,8.83
2019-05-18T13:10:18.856Z,10.18
2019-05-18T13:12:47.403Z,9.45
2019-05-18T13:15:17.756Z,10.25
2019-05-18T13:17:46.356Z,8.83
2019-05-18T13:20:15.744Z,9.63
2019-05-18T13:22:44.279Z,10.95
2019-05-18T13:25:14.964Z,10.10
2019-05-18T13:27:43.440Z,10.58
2019-05-18T13:30:14.174Z,12.10
2019-05-18T13:32:42.745Z,11.78
2019-05-18T13:35:12.477Z,12.37
2019-05-18T13:37:41.039Z,12.63
2019-05-18T13:40:10.768Z,11.03
2019-05-18T13:42:39.409Z,11.83
2019-05-18T13:45:09.981Z,13.83
2019-05-18T13:47:38.517Z,26.57
2019-05-18T13:50:07.907Z,18.65
2019-05-18T13:52:36.479Z,12.68
2019-05-18T13:55:07.349Z,11.50
2019-05-18T13:57:36.267Z,11.73
2019-05-18T14:00:09.118Z,10.95
2019-05-18T14:02:37.864Z,11.22
2019-05-18T14:05:07.457Z,13.98
2019-05-18T14:07:36.031Z,10.68
2019-05-18T14:10:12.227Z,12.78
2019-05-18T14:12:39.477Z,12.78
2019-05-18T14:15:09.223Z,12.65
2019-05-18T14:17:37.851Z,14.33
2019-05-18T14:20:07.801Z,11.10
2019-05-18T14:22:36.406Z,10.00
2019-05-18T14:25:18.795Z,11.45
2019-05-18T14:27:39.730Z,10.88
2019-05-18T14:30:09.137Z,11.88
2019-05-18T14:32:37.714Z,9.90
2019-05-18T14:35:07.720Z,10.88
2019-05-18T14:37:36.261Z,10.50
2019-05-18T14:40:07.077Z,11.88
2019-05-18T14:42:35.584Z,13.60
2019-05-18T14:45:06.465Z,13.22
2019-05-18T14:47:34.997Z,9.13
2019-05-18T14:50:04.506Z,6.72
2019-05-18T14:52:33.098Z,7.37
2019-05-18T14:55:01.698Z,7.87
2019-05-18T14:57:30.305Z,8.90
2019-05-18T15:00:02.173Z,8.23
2019-05-18T15:02:29.079Z,6.80
2019-05-18T15:04:57.547Z,6.22
2019-05-18T15:07:26.081Z,6.55
2019-05-18T15:09:54.688Z,5.37
2019-05-18T15:12:23.231Z,6.67
2019-05-18T15:14:51.695Z,6.22
2019-05-18T15:17:20.298Z,5.83
2019-05-18T15:19:48.928Z,5.50
2019-05-18T15:22:17.506Z,5.60
2019-05-18T15:24:46.082Z,6.30
2019-05-18T15:27:14.636Z,8.30
2019-05-18T15:29:43.212Z,8.08
2019-05-18T15:32:11.771Z,10.88
2019-05-18T15:34:40.429Z,6.85
2019-05-18T15:37:09.055Z,7.12
2019-05-18T15:39:38.020Z,8.03
2019-05-18T15:42:06.673Z,8.10
2019-05-18T15:44:35.382Z,10.90
2019-05-18T15:47:04.196Z,12.07
2019-05-18T15:49:32.736Z,12.30
2019-05-18T15:52:01.313Z,13.10
2019-05-18T15:54:29.914Z,11.20
2019-05-18T15:56:58.414Z,9.45
2019-05-18T15:59:26.969Z,8.45
2019-05-18T16:01:55.483Z,8.30
2019-05-18T16:04:24.043Z,8.20
2019-05-18T16:06:52.587Z,8.28
2019-05-18T16:09:21.152Z,8.80
2019-05-18T16:11:49.756Z,8.85
2019-05-18T16:14:18.374Z,9.83
2019-05-18T16:16:47.061Z,9.10
2019-05-18T16:19:16.122Z,9.78
2019-05-18T16:21:44.668Z,10.08
2019-05-18T16:24:13.176Z,10.43
2019-05-18T16:26:41.721Z,9.20
2019-05-18T16:29:10.216Z,9.60
2019-05-18T16:31:38.881Z,10.25
2019-05-18T16:34:07.415Z,9.80
2019-05-18T16:36:35.919Z,10.00
2019-05-18T16:39:06.895Z,9.93
2019-05-18T16:41:35.401Z,10.13
2019-05-18T16:44:04.606Z,9.83
2019-05-18T16:46:33.191Z,9.45
2019-05-18T16:49:01.696Z,10.30
2019-05-18T16:51:30.215Z,10.13
2019-05-18T16:53:59.584Z,10.23
2019-05-18T16:56:34.949Z,10.13
2019-05-18T16:58:58.349Z,10.20
2019-05-18T17:01:26.958Z,10.88
2019-05-18T17:03:55.495Z,10.58
2019-05-18T17:06:25.605Z,12.80
2019-05-18T17:08:54.555Z,12.20
2019-05-18T17:11:23.182Z,11.85
2019-05-18T17:13:51.752Z,10.88
2019-05-18T17:16:20.737Z,11.85
2019-05-18T17:18:49.264Z,13.53
2019-05-18T17:21:17.731Z,14.35
2019-05-18T17:23:46.342Z,13.90
2019-05-18T17:26:14.914Z,14.20
2019-05-18T17:28:43.725Z,13.93
2019-05-18T17:31:12.282Z,14.73
2019-05-18T17:33:40.858Z,13.50
2019-05-18T17:36:09.426Z,14.00
2019-05-18T17:38:38.076Z,14.25
2019-05-18T17:41:06.853Z,12.98
2019-05-18T17:43:35.461Z,13.98
2019-05-18T17:46:04.140Z,13.80
2019-05-18T17:48:32.697Z,14.07
2019-05-18T17:51:01.269Z,11.97
2019-05-18T17:53:29.934Z,13.78
2019-05-18T17:55:58.484Z,13.03
2019-05-18T17:58:26.990Z,13.85
2019-05-18T18:00:55.704Z,13.62
2019-05-18T18:03:24.266Z,14.10
2019-05-18T18:05:52.740Z,15.53
2019-05-18T18:08:21.320Z,15.13
2019-05-18T18:10:49.903Z,16.32
2019-05-18T18:13:18.436Z,14.78
2019-05-18T18:15:46.939Z,14.38
2019-05-18T18:18:15.411Z,14.68
2019-05-18T18:20:44.054Z,14.50
2019-05-18T18:23:12.706Z,13.72
2019-05-18T18:25:41.279Z,16.75
2019-05-18T18:28:09.892Z,17.50
2019-05-18T18:30:38.455Z,16.85
2019-05-18T18:33:07.012Z,17.25
2019-05-18T18:35:35.584Z,17.25
2019-05-18T18:38:04.163Z,16.75
2019-05-18T18:40:32.626Z,17.20
2019-05-18T18:43:01.130Z,15.40
2019-05-18T18:45:30.234Z,16.80
2019-05-18T18:47:58.749Z,15.85
2019-05-18T18:50:27.358Z,15.18
2019-05-18T18:52:55.887Z,14.95
2019-05-18T18:55:24.472Z,16.02
2019-05-18T18:57:53.003Z,17.05
2019-05-18T19:00:21.668Z,17.80
2019-05-18T19:02:50.227Z,16.93
2019-05-18T19:05:19.108Z,15.60
2019-05-18T19:07:47.684Z,15.88
2019-05-18T19:10:17.434Z,17.35
2019-05-18T19:12:46.012Z,17.17
2019-05-18T19:15:15.120Z,17.15
2019-05-18T19:17:43.587Z,17.65
2019-05-18T19:20:12.858Z,16.80
2019-05-18T19:22:41.411Z,17.50
2019-05-18T19:25:11.681Z,18.35
2019-05-18T19:27:52.728Z,19.37
2019-05-18T19:30:11.239Z,16.55
2019-05-18T19:32:39.829Z,18.17
2019-05-18T19:35:09.523Z,19.02
2019-05-18T19:37:38.452Z,18.30
2019-05-18T19:40:07.568Z,18.98
2019-05-18T19:42:36.195Z,17.48
2019-05-18T19:45:09.882Z,17.12
2019-05-18T19:47:38.410Z,16.60
2019-05-18T19:50:08.757Z,16.65
2019-05-18T19:52:37.360Z,16.32
2019-05-18T19:55:09.404Z,16.97
2019-05-18T19:57:38.092Z,17.60
2019-05-18T20:00:07.469Z,18.12
2019-05-18T20:02:36.107Z,18.17
2019-05-18T20:05:08.943Z,19.73
2019-05-18T20:07:37.680Z,18.42
2019-05-18T20:10:08.375Z,18.52
2019-05-18T20:12:36.927Z,20.75
2019-05-18T20:15:09.541Z,22.32
2019-05-18T20:17:37.793Z,22.60
2019-05-18T20:20:09.110Z,20.00
2019-05-18T20:22:37.844Z,18.35
2019-05-18T20:25:08.144Z,19.92
2019-05-18T20:27:36.745Z,17.62
2019-05-18T20:30:10.584Z,18.42
2019-05-18T20:32:40.913Z,19.37
2019-05-18T20:35:09.956Z,17.65
2019-05-18T20:37:38.503Z,18.57
2019-05-18T20:40:07.657Z,19.20
2019-05-18T20:42:37.665Z,18.82
2019-05-18T20:45:07.189Z,19.48
2019-05-18T20:47:35.771Z,19.02
2019-05-18T20:50:05.778Z,19.20
2019-05-18T20:52:34.332Z,17.92
2019-05-18T20:55:02.872Z,18.75
2019-05-18T20:57:31.504Z,18.15
2019-05-18T21:00:00.117Z,19.50
2019-05-18T21:02:28.660Z,17.80
2019-05-18T21:04:57.370Z,19.40
2019-05-18T21:07:25.968Z,18.90
2019-05-18T21:09:54.519Z,19.50
2019-05-18T21:12:23.123Z,19.25
2019-05-18T21:14:51.708Z,19.12
2019-05-18T21:17:20.280Z,20.62
2019-05-18T21:19:48.983Z,20.77
2019-05-18T21:22:17.527Z,21.93
2019-05-18T21:24:46.098Z,21.33
2019-05-18T21:27:14.676Z,21.68
2019-05-18T21:29:43.340Z,22.32
2019-05-18T21:32:11.917Z,22.60
2019-05-18T21:34:40.450Z,24.43
2019-05-18T21:37:08.977Z,23.42
2019-05-18T21:39:37.955Z,25.45
2019-05-18T21:42:06.457Z,25.68
2019-05-18T21:44:35.263Z,27.42
2019-05-18T21:47:04.304Z,29.20
2019-05-18T21:49:32.873Z,32.85
2019-05-18T21:52:01.540Z,27.55
2019-05-18T21:54:30.087Z,27.02
2019-05-18T21:56:58.698Z,29.40
2019-05-18T21:59:27.470Z,31.68
2019-05-18T22:01:56.203Z,28.00
2019-05-18T22:04:24.839Z,24.92
2019-05-18T22:06:53.845Z,23.60
2019-05-18T22:09:22.485Z,22.70
2019-05-18T22:11:51.077Z,23.27
2019-05-18T22:14:19.629Z,28.20
2019-05-18T22:16:48.281Z,24.07
2019-05-18T22:19:16.819Z,24.32
2019-05-18T22:21:45.352Z,24.47
2019-05-18T22:24:14.215Z,25.05
2019-05-18T22:26:42.765Z,26.70
2019-05-18T22:29:11.375Z,27.25
2019-05-18T22:31:39.911Z,29.25
2019-05-18T22:34:08.451Z,26.37
2019-05-18T22:36:37.002Z,27.82
2019-05-18T22:39:08.630Z,26.85
2019-05-18T22:41:37.161Z,28.07
2019-05-18T22:44:05.828Z,28.35
2019-05-18T22:46:34.368Z,27.48
2019-05-18T22:49:02.875Z,27.35
2019-05-18T22:51:31.515Z,27.30
2019-05-18T22:54:00.092Z,31.15
2019-05-18T22:56:28.663Z,26.97
2019-05-18T22:58:57.260Z,27.50
2019-05-18T23:01:25.808Z,29.37
2019-05-18T23:03:54.452Z,26.27
2019-05-18T23:06:23.053Z,27.40
2019-05-18T23:08:51.626Z,26.80
2019-05-18T23:11:20.185Z,26.25
2019-05-18T23:13:48.824Z,26.37
2019-05-18T23:16:17.339Z,27.50
2019-05-18T23:18:56.540Z,27.15
2019-05-18T23:21:16.042Z,25.97
2019-05-18T23:23:44.519Z,27.30
2019-05-18T23:26:13.026Z,25.35
2019-05-18T23:28:41.599Z,25.90
2019-05-18T23:31:10.055Z,26.45
2019-05-18T23:33:38.556Z,25.25
2019-05-18T23:36:07.127Z,27.55
2019-05-18T23:38:35.602Z,28.67
2019-05-18T23:41:04.178Z,28.12
2019-05-18T23:43:33.213Z,29.05
2019-05-18T23:46:01.780Z,29.75
2019-05-18T23:48:30.349Z,28.83
2019-05-18T23:50:58.930Z,27.55
2019-05-18T23:53:27.542Z,25.15
2019-05-18T23:55:56.003Z,25.32
2019-05-18T23:58:24.499Z,24.05
